This is the latest recevied weather packets stored in our database for station/object WC4PEM. If no packets are shown the sender has not sent any weather packets the latest 10 day(s).
| Time | Temp. | Humidity | Pressure | Rain* | Wind** | Luminosity | Snow |
|---|---|---|---|---|---|---|---|
| 1776950006 | 23.89° C | 66% | 1018.5 hPa | 0 mm | - | - | - |
| 1776949800 | 23.89° C | 66% | 1018.5 hPa | 0 mm | - | - | - |
| 1776949655 | 23.89° C | 67% | 1018.5 hPa | 0 mm | - | - | - |
| 1776949500 | 23.89° C | 67% | 1018.5 hPa | 0 mm | - | - | - |
| 1776949200 | 23.33° C | 69% | 1018.6 hPa | 0 mm | - | - | - |
| 1776948918 | 22.22° C | 75% | 1018.5 hPa | 0 mm | - | - | - |
| 1776948900 | 23.33° C | 70% | 1018.5 hPa | 0 mm | - | - | - |
| 1776948600 | 23.33° C | 71% | 1018.5 hPa | 0 mm | - | - | - |
| 1776948300 | 22.78° C | 71% | 1018.5 hPa | 0 mm | - | - | - |
| 1776948000 | 22.78° C | 73% | 1018.5 hPa | 0 mm | - | - | - |
| 1776947700 | 22.22° C | 75% | 1018.5 hPa | 0 mm | - | - | - |
| 1776947650 | 22.22° C | 76% | 1018.6 hPa | 0 mm | - | - | - |
| 1776947400 | 22.22° C | 76% | 1018.6 hPa | 0 mm | - | - | - |
| 1776947180 | 22.22° C | 77% | 1018.6 hPa | 0 mm | - | - | - |
| 1776947100 | 22.22° C | 77% | 1018.6 hPa | 0 mm | - | - | - |
| 1776946933 | 21.67° C | 77% | 1018.6 hPa | 0 mm | - | - | - |
| 1776946800 | 21.67° C | 77% | 1018.6 hPa | 0 mm | - | - | - |
| 1776946662 | 20.56° C | 82% | 1018.5 hPa | 0 mm | - | - | - |
| 1776946500 | 21.67° C | 79% | 1018.6 hPa | 0 mm | - | - | - |
| 1776946200 | 21.11° C | 80% | 1018.6 hPa | 0 mm | - | - | - |
| 1776946155 | 20.56° C | 82% | 1018.5 hPa | 0 mm | - | - | - |
| 1776945900 | 20.56° C | 82% | 1018.5 hPa | 0 mm | - | - | - |
| 1776945884 | 20.56° C | 83% | 1018.6 hPa | 0 mm | - | - | - |
| 1776945795 | 20° C | 85% | 1018.6 hPa | 0 mm | - | - | - |
| 1776945600 | 20.56° C | 83% | 1018.6 hPa | 0 mm | - | - | - |
* Rain latest hour (hover to see other rain measurements)
** Current wind speed in m/s (hover to see current wind gust speed)